Time;durP1;ratioP1;P1;durP2;ratioP2;P2;SDS_P1;SDS_P2;PMS_P1;PMS_P2;Temp;Humidity;BMP_temperature;BMP_pressure;BME280_temperature;BME280_humidity;BME280_pressure;Samples;Min_cycle;Max_cycle;Signal;HPM_P1;HPM_P2
2021/08/29 00:00:50;;;;;;;0.40;0.10;;;;;;;15.70;65.61;100174.48;112264;1201;109014;-73
2021/08/29 00:03:19;;;;;;;0.40;0.10;;;;;;;15.67;65.49;100171.23;112289;1199;139770;-73
2021/08/29 00:05:46;;;;;;;0.40;0.10;;;;;;;15.62;65.48;100168.27;112305;1200;94919;-73
2021/08/29 00:08:13;;;;;;;0.40;0.10;;;;;;;15.53;65.60;100161.89;112432;1199;95345;-74
2021/08/29 00:10:39;;;;;;;0.40;0.10;;;;;;;15.51;65.78;100159.16;112353;1198;138108;-74
2021/08/29 00:13:06;;;;;;;0.40;0.10;;;;;;;15.46;65.94;100160.67;112397;1198;95387;-74
2021/08/29 00:15:33;;;;;;;0.40;0.10;;;;;;;15.41;66.12;100161.42;112337;1200;137547;-74
2021/08/29 00:17:59;;;;;;;0.40;0.20;;;;;;;15.34;66.28;100162.16;112505;1206;94830;-74
2021/08/29 00:20:26;;;;;;;0.40;0.10;;;;;;;15.31;66.32;100160.18;112419;1199;94979;-75
2021/08/29 00:22:53;;;;;;;0.40;0.10;;;;;;;15.30;66.31;100163.27;112406;1201;138206;-75
2021/08/29 00:25:20;;;;;;;0.40;0.20;;;;;;;15.29;66.29;100162.04;112542;1206;94915;-74
2021/08/29 00:27:46;;;;;;;0.40;0.20;;;;;;;15.29;66.15;100161.50;112256;1201;137690;-74
2021/08/29 00:30:13;;;;;;;0.40;0.20;;;;;;;15.26;66.25;100159.16;112578;1198;94889;-75
2021/08/29 00:32:40;;;;;;;0.40;0.20;;;;;;;15.31;66.21;100156.77;112399;1197;138626;-75
2021/08/29 00:35:07;;;;;;;0.40;0.10;;;;;;;15.34;66.02;100155.15;112285;1200;94842;-73
2021/08/29 00:37:34;;;;;;;0.40;0.20;;;;;;;15.31;66.18;100156.02;112411;1206;94808;-75
2021/08/29 00:40:01;;;;;;;0.40;0.20;;;;;;;15.25;66.37;100156.55;112291;1201;138051;-74
2021/08/29 00:42:28;;;;;;;0.40;0.10;;;;;;;15.29;66.32;100157.95;112408;1200;96683;-74
2021/08/29 00:44:54;;;;;;;0.40;0.10;;;;;;;15.32;66.15;100159.40;112284;1200;139109;-76
2021/08/29 00:47:21;;;;;;;0.40;0.20;;;;;;;15.29;66.19;100162.95;112562;1205;94872;-76
2021/08/29 00:49:48;;;;;;;0.40;0.20;;;;;;;15.27;66.16;100165.19;112376;1206;108364;-74
2021/08/29 00:52:15;;;;;;;0.40;0.20;;;;;;;15.27;66.19;100163.08;112276;1198;139851;-73
2021/08/29 00:54:41;;;;;;;0.40;0.20;;;;;;;15.17;66.21;100164.77;112382;1206;95390;-77
2021/08/29 00:57:09;;;;;;;0.40;0.20;;;;;;;15.12;66.26;100167.35;112319;1199;139391;-74
2021/08/29 00:59:38;;;;;;;0.40;0.10;;;;;;;15.03;66.45;100169.73;112275;1199;94822;-74
2021/08/29 01:02:11;;;;;;;0.40;0.20;;;;;;;14.97;66.94;100175.08;112538;1198;94791;-74
2021/08/29 01:04:53;;;;;;;0.40;0.20;;;;;;;15.07;66.72;100174.55;112374;1205;139536;-74
2021/08/29 01:07:35;;;;;;;0.40;0.20;;;;;;;15.18;66.34;100168.66;112507;1198;108522;-74
2021/08/29 01:10:09;;;;;;;0.40;0.20;;;;;;;15.23;66.14;100170.23;112367;1200;138734;-73
2021/08/29 01:12:37;;;;;;;0.40;0.20;;;;;;;15.20;66.17;100174.11;112509;1199;94881;-74
2021/08/29 01:15:05;;;;;;;0.40;0.20;;;;;;;15.17;66.10;100177.67;112463;1200;138169;-75
2021/08/29 01:17:34;;;;;;;0.40;0.20;;;;;;;15.16;66.42;100179.89;112586;1205;108778;-74
2021/08/29 01:20:03;;;;;;;0.40;0.20;;;;;;;15.17;66.23;100182.48;112527;1198;109924;-75
2021/08/29 01:22:31;;;;;;;0.40;0.20;;;;;;;15.12;66.17;100181.13;112353;1205;137883;-75
2021/08/29 01:24:58;;;;;;;0.40;0.20;;;;;;;15.14;66.26;100177.27;112452;1206;94831;-75
2021/08/29 01:27:46;;;;;;;0.40;0.20;;;;;;;15.19;66.06;100177.37;112292;1205;139903;-75
2021/08/29 01:30:13;;;;;;;0.40;0.20;;;;;;;15.16;66.12;100179.29;112576;1205;109523;-75
2021/08/29 01:32:40;;;;;;;0.40;0.20;;;;;;;15.06;66.31;100188.71;112419;1205;137870;-73
2021/08/29 01:35:08;;;;;;;0.40;0.20;;;;;;;15.00;66.42;100184.39;112481;1199;96894;-74
2021/08/29 01:37:35;;;;;;;0.40;0.20;;;;;;;15.01;66.62;100186.11;112674;1199;94919;-76
2021/08/29 01:40:03;;;;;;;0.40;0.20;;;;;;;15.13;66.41;100178.05;112430;1197;139078;-75
2021/08/29 01:42:30;;;;;;;0.40;0.20;;;;;;;15.22;66.06;100175.06;112383;1199;95346;-75
2021/08/29 01:44:57;;;;;;;0.40;0.20;;;;;;;15.20;66.01;100170.34;112441;1206;138421;-74
2021/08/29 01:47:24;;;;;;;0.40;0.20;;;;;;;15.13;66.14;100172.14;112583;1205;94824;-74
2021/08/29 01:49:51;;;;;;;0.40;0.20;;;;;;;15.16;66.06;100177.50;112549;1206;94833;-74
2021/08/29 01:52:18;;;;;;;0.40;0.20;;;;;;;15.20;66.11;100175.34;112493;1197;138856;-74
2021/08/29 01:54:44;;;;;;;0.40;0.10;;;;;;;15.17;65.91;100174.25;112534;1198;94839;-74
2021/08/29 01:57:13;;;;;;;0.40;0.20;;;;;;;15.16;66.00;100173.25;112479;1197;138531;-75
2021/08/29 01:59:44;;;;;;;0.40;0.20;;;;;;;15.10;66.18;100171.02;112493;1205;109356;-75
2021/08/29 02:02:12;;;;;;;0.40;0.20;;;;;;;15.04;66.22;100168.27;112565;1206;109420;-75
2021/08/29 02:04:45;;;;;;;0.40;0.10;;;;;;;14.95;66.58;100175.15;112393;1197;139341;-75
2021/08/29 02:07:28;;;;;;;0.40;0.20;;;;;;;14.80;66.75;100170.88;112521;1199;95288;-75
2021/08/29 02:10:09;;;;;;;0.40;0.20;;;;;;;14.63;67.19;100168.21;112366;1198;139102;-76
2021/08/29 02:12:45;;;;;;;0.40;0.20;;;;;;;14.52;67.69;100170.33;112493;1198;110439;-75
2021/08/29 02:15:18;;;;;;;0.40;0.10;;;;;;;14.53;67.80;100169.41;112373;1198;138917;-76
2021/08/29 02:17:47;;;;;;;0.40;0.20;;;;;;;14.65;67.73;100169.77;112524;1206;95007;-75
2021/08/29 02:20:18;;;;;;;0.40;0.20;;;;;;;14.71;67.52;100167.70;112418;1205;108604;-76
2021/08/29 02:22:45;;;;;;;0.40;0.20;;;;;;;14.79;67.02;100168.40;112419;1198;141324;-74
2021/08/29 02:25:12;;;;;;;0.40;0.10;;;;;;;14.84;67.02;100162.60;112300;1199;94793;-76
2021/08/29 02:27:40;;;;;;;0.40;0.20;;;;;;;14.80;67.16;100165.49;112367;1200;138189;-75
2021/08/29 02:30:08;;;;;;;0.40;0.20;;;;;;;14.72;67.33;100162.65;112492;1197;107495;-75
2021/08/29 02:32:37;;;;;;;0.40;0.20;;;;;;;14.69;67.31;100162.74;112551;1198;109972;-75
2021/08/29 02:35:05;;;;;;;0.40;0.20;;;;;;;14.77;67.25;100158.14;112390;1200;137938;-75
2021/08/29 02:37:33;;;;;;;0.40;0.20;;;;;;;14.84;66.98;100157.81;112566;1198;94825;-75
2021/08/29 02:40:02;;;;;;;0.40;0.20;;;;;;;14.88;66.79;100155.29;112320;1205;139267;-75
2021/08/29 02:42:30;;;;;;;0.40;0.20;;;;;;;14.91;66.60;100150.33;112469;1198;109580;-74
2021/08/29 02:44:59;;;;;;;0.40;0.20;;;;;;;14.94;66.51;100146.94;112372;1199;139098;-74
2021/08/29 02:47:27;;;;;;;0.40;0.20;;;;;;;14.95;66.36;100151.55;112463;1198;95395;-74
2021/08/29 02:49:54;;;;;;;0.40;0.20;;;;;;;14.93;66.14;100144.87;112406;1198;108762;-74
2021/08/29 02:52:21;;;;;;;0.40;0.20;;;;;;;14.80;66.49;100152.07;112289;1199;139184;-73
2021/08/29 02:54:48;;;;;;;0.40;0.20;;;;;;;14.64;66.85;100146.94;112511;1198;94965;-74
2021/08/29 02:57:15;;;;;;;0.40;0.20;;;;;;;14.60;67.00;100144.96;112390;1205;138574;-74
2021/08/29 02:59:42;;;;;;;0.40;0.20;;;;;;;14.59;67.13;100145.69;112450;1205;94909;-74
2021/08/29 03:02:11;;;;;;;0.40;0.20;;;;;;;14.58;67.20;100145.04;112518;1197;95303;-74
2021/08/29 03:04:39;;;;;;;0.40;0.20;;;;;;;14.57;67.36;100149.57;112344;1199;139589;-75
2021/08/29 03:07:06;;;;;;;0.40;0.20;;;;;;;14.55;67.28;100147.16;112523;1198;94907;-73
2021/08/29 03:09:35;;;;;;;0.40;0.20;;;;;;;14.66;66.95;100145.23;112362;1205;137820;-75
2021/08/29 03:12:10;;;;;;;0.40;0.20;;;;;;;14.73;66.59;100142.43;112492;1205;109077;-74
2021/08/29 03:14:39;;;;;;;0.40;0.20;;;;;;;14.73;66.49;100143.85;112528;1204;95468;-75
2021/08/29 03:17:06;;;;;;;0.40;0.20;;;;;;;14.68;66.55;100138.36;112444;1205;138841;-75
2021/08/29 03:19:35;;;;;;;0.40;0.20;;;;;;;14.68;66.59;100140.13;112463;1205;110127;-75
2021/08/29 03:22:04;;;;;;;0.40;0.20;;;;;;;14.68;66.34;100137.09;112379;1205;138171;-75
2021/08/29 03:24:31;;;;;;;0.40;0.10;;;;;;;14.67;66.48;100133.23;112489;1199;94792;-75
2021/08/29 03:26:57;;;;;;;0.40;0.20;;;;;;;14.61;66.32;100129.56;112353;1205;137892;-75
2021/08/29 03:29:24;;;;;;;0.40;0.20;;;;;;;14.57;66.44;100129.73;112471;1198;94850;-75
2021/08/29 03:31:51;;;;;;;0.40;0.20;;;;;;;14.61;66.26;100132.06;112452;1205;94921;-75
2021/08/29 03:34:18;;;;;;;0.40;0.20;;;;;;;14.63;66.20;100129.11;112357;1199;139086;-75
2021/08/29 03:36:45;;;;;;;0.40;0.20;;;;;;;14.54;66.24;100133.80;112547;1198;94814;-75
2021/08/29 03:39:13;;;;;;;0.40;0.20;;;;;;;14.47;66.36;100137.85;112475;1205;139629;-74
2021/08/29 03:41:40;;;;;;;0.40;0.20;;;;;;;14.42;66.40;100136.88;112448;1205;108073;-75
2021/08/29 03:44:09;;;;;;;0.40;0.20;;;;;;;14.47;66.28;100131.26;112511;1198;109260;-75
2021/08/29 03:46:36;;;;;;;0.40;0.20;;;;;;;14.53;65.82;100126.30;112440;1197;139289;-75
2021/08/29 03:49:04;;;;;;;0.40;0.20;;;;;;;14.50;65.72;100121.66;112512;1199;94896;-73
2021/08/29 03:51:32;;;;;;;0.40;0.20;;;;;;;14.39;66.18;100123.22;112353;1204;139019;-74
2021/08/29 03:54:00;;;;;;;0.40;0.20;;;;;;;14.24;66.43;100122.70;112548;1205;108621;-74
2021/08/29 03:56:28;;;;;;;0.40;0.20;;;;;;;14.19;66.67;100122.18;112467;1198;94929;-74
2021/08/29 03:58:55;;;;;;;0.40;0.20;;;;;;;14.19;66.82;100123.98;112502;1205;138975;-74
2021/08/29 04:01:22;;;;;;;0.40;0.20;;;;;;;14.17;66.88;100120.66;112440;1198;94833;-74
2021/08/29 04:03:49;;;;;;;0.40;0.20;;;;;;;14.28;66.72;100123.06;112451;1198;138086;-74
2021/08/29 04:06:17;;;;;;;0.40;0.20;;;;;;;14.35;66.50;100120.75;112524;1200;94839;-74
2021/08/29 04:08:49;;;;;;;0.40;0.20;;;;;;;14.43;66.53;100119.81;112492;1199;139383;-74
2021/08/29 04:11:21;;;;;;;0.40;0.20;;;;;;;14.43;66.25;100128.78;112476;1198;108607;-74
2021/08/29 04:13:50;;;;;;;0.40;0.20;;;;;;;14.38;66.42;100133.09;112465;1199;109507;-74
2021/08/29 04:16:17;;;;;;;0.40;0.20;;;;;;;14.42;66.18;100129.89;112327;1197;139609;-74
2021/08/29 04:18:46;;;;;;;0.40;0.20;;;;;;;14.47;66.12;100129.50;112605;1205;95431;-74
2021/08/29 04:21:14;;;;;;;0.40;0.20;;;;;;;14.37;66.27;100132.27;112393;1197;137966;-73
2021/08/29 04:23:41;;;;;;;0.40;0.20;;;;;;;14.30;66.64;100138.33;112453;1198;109563;-74
2021/08/29 04:26:08;;;;;;;0.40;0.20;;;;;;;14.32;66.86;100145.16;112472;1198;95336;-74
2021/08/29 04:28:36;;;;;;;0.40;0.20;;;;;;;14.31;66.91;100143.04;112461;1198;138512;-74
2021/08/29 04:31:09;;;;;;;0.40;0.20;;;;;;;14.32;67.10;100138.23;112419;1205;94814;-74
2021/08/29 04:33:36;;;;;;;0.40;0.20;;;;;;;14.36;67.08;100140.71;112418;1205;137463;-74
2021/08/29 04:36:04;;;;;;;0.40;0.20;;;;;;;14.41;67.05;100138.17;112372;1207;95303;-74
2021/08/29 04:38:31;;;;;;;0.40;0.20;;;;;;;14.46;67.07;100135.41;112602;1205;94836;-74
2021/08/29 04:40:58;;;;;;;0.40;0.20;;;;;;;14.57;67.11;100140.46;112311;1199;139011;-74
2021/08/29 04:43:25;;;;;;;0.40;0.20;;;;;;;14.54;67.35;100142.02;112532;1205;95249;-74
2021/08/29 04:45:52;;;;;;;0.40;0.20;;;;;;;14.48;67.57;100142.28;112427;1199;139825;-74
2021/08/29 04:48:20;;;;;;;0.40;0.20;;;;;;;14.49;67.73;100146.73;112529;1199;94957;-75
2021/08/29 04:50:47;;;;;;;0.40;0.20;;;;;;;14.49;67.87;100143.66;112320;1198;139555;-75
2021/08/29 04:53:14;;;;;;;0.40;0.20;;;;;;;14.56;68.09;100138.14;112512;1203;95200;-75
2021/08/29 04:55:40;;;;;;;0.40;0.20;;;;;;;14.69;67.77;100137.40;112476;1205;95424;-74
2021/08/29 04:58:07;;;;;;;0.40;0.20;;;;;;;14.80;67.45;100131.36;112426;1205;137858;-75
2021/08/29 05:00:34;;;;;;;0.40;0.20;;;;;;;14.87;67.32;100126.54;112474;1205;94843;-75
2021/08/29 05:03:05;;;;;;;0.40;0.20;;;;;;;14.95;67.47;100131.19;112429;1205;139637;-75
2021/08/29 05:05:32;;;;;;;0.40;0.20;;;;;;;14.95;67.85;100129.73;112473;1205;109462;-75
2021/08/29 05:07:58;;;;;;;0.40;0.20;;;;;;;14.89;68.04;100124.29;112449;1207;94990;-75
2021/08/29 05:10:25;;;;;;;0.40;0.20;;;;;;;14.92;68.02;100130.44;112349;1197;139292;-75
2021/08/29 05:12:52;;;;;;;0.40;0.20;;;;;;;15.02;68.22;100131.73;112503;1205;94946;-75
2021/08/29 05:15:18;;;;;;;0.40;0.20;;;;;;;15.11;67.99;100133.25;112428;1198;137987;-75
2021/08/29 05:17:45;;;;;;;0.40;0.20;;;;;;;15.18;67.99;100137.35;112479;1204;108477;-75
2021/08/29 05:20:12;;;;;;;0.40;0.20;;;;;;;15.21;68.10;100143.68;112457;1199;94860;-74
2021/08/29 05:22:39;;;;;;;0.40;0.20;;;;;;;15.23;68.38;100148.20;112340;1199;139309;-75
2021/08/29 05:25:06;;;;;;;0.40;0.20;;;;;;;15.27;68.58;100148.53;112445;1199;95309;-75
2021/08/29 05:27:32;;;;;;;0.40;0.20;;;;;;;15.32;68.62;100145.44;112343;1198;139321;-74
2021/08/29 05:29:59;;;;;;;0.40;0.20;;;;;;;15.33;68.63;100145.20;112508;1199;94808;-75
2021/08/29 05:32:26;;;;;;;0.40;0.20;;;;;;;15.36;68.89;100143.77;112384;1198;94877;-75
2021/08/29 05:34:52;;;;;;;0.40;0.20;;;;;;;15.47;68.53;100146.48;112325;1199;138104;-75
2021/08/29 05:37:19;;;;;;;0.40;0.20;;;;;;;15.63;68.02;100147.80;112444;1203;95339;-75
2021/08/29 05:39:45;;;;;;;0.40;0.20;;;;;;;15.82;67.68;100143.61;112356;1203;137697;-75
2021/08/29 05:42:12;;;;;;;0.40;0.20;;;;;;;15.96;67.19;100136.63;112487;1198;94828;-75
2021/08/29 05:44:39;;;;;;;0.40;0.10;;;;;;;16.03;66.95;100136.79;112419;1205;95347;-75
2021/08/29 05:47:05;;;;;;;0.40;0.20;;;;;;;16.12;66.77;100140.27;112342;1199;139069;-75
2021/08/29 05:49:32;;;;;;;0.40;0.10;;;;;;;16.19;67.03;100137.38;112395;1198;95350;-75
2021/08/29 05:51:58;;;;;;;0.40;0.10;;;;;;;16.32;66.52;100130.64;112354;1198;138112;-74
2021/08/29 05:54:25;;;;;;;0.40;0.10;;;;;;;16.41;66.09;100130.83;112503;1198;95310;-74
2021/08/29 05:56:52;;;;;;;0.40;0.10;;;;;;;16.47;66.06;100130.72;112371;1205;138690;-74
2021/08/29 05:59:18;;;;;;;0.40;0.10;;;;;;;16.47;66.55;100135.55;112468;1199;94929;-75
2021/08/29 06:01:45;;;;;;;0.40;0.10;;;;;;;16.47;66.76;100130.85;112417;1198;94796;-75
2021/08/29 06:04:12;;;;;;;0.40;0.10;;;;;;;16.55;66.98;100122.71;112295;1199;138350;-75
2021/08/29 06:06:39;;;;;;;0.40;0.10;;;;;;;16.59;66.99;100123.23;112466;1198;95255;-75
2021/08/29 06:09:05;;;;;;;0.40;0.10;;;;;;;16.61;66.26;100128.34;112434;1206;138951;-75
2021/08/29 06:11:33;;;;;;;0.40;0.20;;;;;;;16.62;66.24;100125.23;112460;1198;94914;-74
2021/08/29 06:14:00;;;;;;;0.40;0.10;;;;;;;16.73;66.33;100120.48;112450;1197;108490;-74
2021/08/29 06:16:26;;;;;;;0.40;0.10;;;;;;;16.86;66.16;100111.29;112349;1199;139555;-74
2021/08/29 06:18:53;;;;;;;0.40;0.10;;;;;;;16.95;65.76;100108.27;112487;1203;95516;-74
2021/08/29 06:21:19;;;;;;;0.40;0.10;;;;;;;16.99;65.84;100104.66;112376;1198;139196;-74
2021/08/29 06:23:46;;;;;;;0.40;0.10;;;;;;;17.09;65.53;100099.41;112517;1198;95572;-74
2021/08/29 06:26:13;;;;;;;0.40;0.20;;;;;;;17.18;65.10;100098.01;112427;1198;108793;-74
2021/08/29 06:28:39;;;;;;;0.40;0.10;;;;;;;17.23;65.10;100095.59;112341;1198;138788;-74
2021/08/29 06:31:06;;;;;;;0.40;0.10;;;;;;;17.28;64.91;100097.25;112388;1205;95339;-74
2021/08/29 06:33:33;;;;;;;0.40;0.10;;;;;;;17.22;65.52;100099.40;112316;1199;139225;-74
2021/08/29 06:36:00;;;;;;;0.40;0.10;;;;;;;17.27;65.45;100102.52;112539;1198;95336;-74
2021/08/29 06:38:26;;;;;;;0.40;0.10;;;;;;;17.40;65.70;100104.80;112430;1205;108770;-75
2021/08/29 06:40:53;;;;;;;0.40;0.10;;;;;;;17.47;65.76;100104.38;112310;1205;139310;-74
2021/08/29 06:43:20;;;;;;;0.40;0.10;;;;;;;17.41;65.90;100105.42;112492;1203;94826;-74
2021/08/29 06:45:46;;;;;;;0.40;0.10;;;;;;;17.44;65.48;100102.58;112275;1205;137607;-74
2021/08/29 06:48:13;;;;;;;0.40;0.10;;;;;;;17.57;65.01;100101.67;112521;1198;94832;-74
2021/08/29 06:50:39;;;;;;;0.40;0.10;;;;;;;17.68;64.69;100102.60;112418;1204;109119;-74
2021/08/29 06:53:06;;;;;;;0.40;0.10;;;;;;;17.63;64.63;100105.04;112408;1205;139037;-74
2021/08/29 06:55:33;;;;;;;0.40;0.10;;;;;;;17.60;64.92;100112.59;112427;1197;94822;-72
2021/08/29 06:57:59;;;;;;;0.40;0.10;;;;;;;17.68;64.57;100103.33;112420;1205;139194;-72
2021/08/29 07:00:26;;;;;;;0.40;0.10;;;;;;;17.76;64.21;100102.81;112521;1205;95152;-74
2021/08/29 07:02:53;;;;;;;0.40;0.10;;;;;;;17.85;64.21;100109.25;112411;1198;138790;-73
2021/08/29 07:05:20;;;;;;;0.40;0.10;;;;;;;17.97;64.24;100113.63;112523;1199;94813;-72
2021/08/29 07:07:47;;;;;;;0.40;0.10;;;;;;;18.05;63.62;100108.98;112508;1198;94853;-73
2021/08/29 07:10:13;;;;;;;0.40;0.10;;;;;;;18.11;63.99;100102.70;112333;1199;139488;-72
2021/08/29 07:12:40;;;;;;;0.40;0.10;;;;;;;18.15;63.84;100104.94;112502;1205;95375;-72
2021/08/29 07:15:07;;;;;;;0.40;0.10;;;;;;;18.20;64.02;100103.95;112397;1199;138867;-73
2021/08/29 07:17:33;;;;;;;0.40;0.10;;;;;;;18.30;63.84;100107.58;112499;1203;109410;-72
2021/08/29 07:20:00;;;;;;;0.40;0.10;;;;;;;18.40;63.38;100101.61;112460;1198;94787;-72
2021/08/29 07:22:26;;;;;;;0.40;0.10;;;;;;;18.50;63.29;100106.52;112392;1198;139808;-72
2021/08/29 07:24:53;;;;;;;0.40;0.10;;;;;;;18.61;63.37;100112.64;112375;1199;94854;-72
2021/08/29 07:27:20;;;;;;;0.40;0.10;;;;;;;18.62;63.18;100117.47;112485;1205;138917;-72
2021/08/29 07:29:46;;;;;;;0.40;0.10;;;;;;;18.59;63.59;100119.25;112420;1199;109426;-72
2021/08/29 07:32:13;;;;;;;0.40;0.10;;;;;;;18.51;64.24;100110.96;112497;1198;96080;-72
2021/08/29 07:34:41;;;;;;;0.40;0.10;;;;;;;18.61;63.46;100114.67;112315;1203;139775;-72
2021/08/29 07:37:07;;;;;;;0.40;0.10;;;;;;;18.73;63.52;100124.27;112495;1205;94811;-73
2021/08/29 07:39:34;;;;;;;0.40;0.10;;;;;;;18.77;63.35;100123.11;112337;1205;138999;-73
2021/08/29 07:42:01;;;;;;;0.40;0.10;;;;;;;18.77;63.45;100114.86;112516;1199;94911;-72
2021/08/29 07:44:27;;;;;;;0.40;0.10;;;;;;;18.91;63.15;100110.38;112477;1198;94797;-72
2021/08/29 07:46:54;;;;;;;0.40;0.10;;;;;;;19.08;62.74;100103.27;112381;1197;138723;-74
2021/08/29 07:49:21;;;;;;;0.40;0.10;;;;;;;19.26;62.37;100102.50;112422;1199;94997;-72
2021/08/29 07:51:47;;;;;;;0.40;0.10;;;;;;;19.36;62.41;100112.44;112340;1199;138063;-72
2021/08/29 07:54:14;;;;;;;0.40;0.10;;;;;;;19.27;62.03;100114.30;112436;1205;95290;-72
2021/08/29 07:56:41;;;;;;;0.40;0.10;;;;;;;19.27;62.98;100111.95;112509;1198;94911;-73
2021/08/29 07:59:08;;;;;;;0.40;0.10;;;;;;;19.42;62.52;100108.95;112349;1203;138899;-72
2021/08/29 08:01:35;;;;;;;0.40;0.10;;;;;;;19.54;62.29;100110.49;112457;1205;95324;-72
2021/08/29 08:04:02;;;;;;;0.40;0.10;;;;;;;19.70;61.50;100111.20;112232;1203;137291;-72
2021/08/29 08:06:29;;;;;;;0.40;0.10;;;;;;;19.79;61.21;100111.29;112486;1199;94489;-72
2021/08/29 08:08:56;;;;;;;0.40;0.10;;;;;;;19.90;60.78;100113.84;112306;1199;138971;-73
2021/08/29 08:11:23;;;;;;;0.40;0.10;;;;;;;20.04;59.97;100116.59;112480;1205;95221;-73
2021/08/29 08:13:53;;;;;;;0.40;0.10;;;;;;;20.10;60.11;100117.83;112478;1203;95256;-73
2021/08/29 08:16:19;;;;;;;0.40;0.00;;;;;;;20.08;60.68;100109.30;112299;1201;137145;-73
2021/08/29 08:18:46;;;;;;;0.40;0.10;;;;;;;20.01;60.23;100110.73;112419;1205;94919;-73
2021/08/29 08:21:13;;;;;;;0.40;0.10;;;;;;;20.02;59.84;100119.46;112333;1205;138967;-74
2021/08/29 08:23:39;;;;;;;0.40;0.10;;;;;;;20.13;59.50;100117.10;112389;1199;94908;-73
2021/08/29 08:26:07;;;;;;;0.40;0.10;;;;;;;20.18;58.33;100113.45;112375;1203;94848;-73
2021/08/29 08:28:34;;;;;;;0.40;0.10;;;;;;;20.26;58.77;100113.30;112292;1198;139570;-73
2021/08/29 08:31:01;;;;;;;0.40;0.10;;;;;;;20.30;58.29;100109.96;112445;1205;94914;-73
2021/08/29 08:33:27;;;;;;;0.40;0.10;;;;;;;20.35;58.64;100107.80;112350;1198;138107;-73
2021/08/29 08:35:54;;;;;;;0.40;0.10;;;;;;;20.41;58.23;100106.97;112341;1205;94874;-73
2021/08/29 08:38:21;;;;;;;0.40;0.10;;;;;;;20.41;58.20;100111.48;112425;1205;94893;-73
2021/08/29 08:40:47;;;;;;;0.40;0.10;;;;;;;20.50;58.70;100111.70;112324;1203;139809;-73
2021/08/29 08:43:14;;;;;;;0.40;0.10;;;;;;;20.57;58.15;100112.55;112521;1205;94900;-73
2021/08/29 08:45:45;;;;;;;0.40;0.10;;;;;;;20.65;58.43;100115.16;112324;1205;137599;-72
2021/08/29 08:48:13;;;;;;;0.40;0.10;;;;;;;20.78;58.32;100115.70;112612;1198;108640;-73
2021/08/29 08:50:44;;;;;;;0.40;0.10;;;;;;;20.80;58.16;100116.64;112467;1198;94855;-73
2021/08/29 08:53:11;;;;;;;0.40;0.10;;;;;;;20.76;57.89;100117.98;112229;1206;138860;-73
2021/08/29 08:55:39;;;;;;;0.40;0.00;;;;;;;20.78;58.38;100115.50;112435;1198;95468;-72
2021/08/29 08:58:06;;;;;;;0.40;0.10;;;;;;;20.80;57.47;100115.87;112355;1203;138896;-73
2021/08/29 09:00:34;;;;;;;0.40;0.10;;;;;;;20.69;57.18;100117.05;112524;1198;109837;-73
2021/08/29 09:03:02;;;;;;;0.40;0.10;;;;;;;20.64;57.68;100124.27;112296;1199;138462;-73
2021/08/29 09:05:29;;;;;;;0.40;0.10;;;;;;;20.57;58.28;100126.91;112384;1198;95173;-73
2021/08/29 09:07:57;;;;;;;0.40;0.10;;;;;;;20.57;58.97;100132.49;112406;1205;93889;-73
2021/08/29 09:10:24;;;;;;;0.40;0.10;;;;;;;20.53;58.91;100132.45;112320;1198;139267;-73
2021/08/29 09:13:01;;;;;;;0.40;0.10;;;;;;;20.48;59.06;100133.39;112456;1202;94924;-73
2021/08/29 09:15:29;;;;;;;0.40;0.00;;;;;;;20.45;59.07;100132.33;112330;1199;137731;-73
2021/08/29 09:17:56;;;;;;;0.40;0.10;;;;;;;20.49;59.05;100135.58;112510;1201;109084;-73
2021/08/29 09:20:38;;;;;;;0.40;0.00;;;;;;;20.46;59.02;100127.56;112377;1198;109415;-73
2021/08/29 09:23:10;;;;;;;0.40;0.00;;;;;;;20.46;59.89;100118.56;112493;1199;136706;-73
2021/08/29 09:25:43;;;;;;;0.40;0.00;;;;;;;20.62;59.71;100115.95;112292;1199;94818;-73
2021/08/29 09:28:13;;;;;;;0.40;0.00;;;;;;;20.74;59.09;100118.88;112383;1206;137861;-73
2021/08/29 09:30:45;;;;;;;0.40;0.00;;;;;;;20.72;58.93;100118.84;112397;1202;109767;-72
2021/08/29 09:33:13;;;;;;;0.40;0.10;;;;;;;20.70;58.99;100114.30;112334;1198;140656;-73
2021/08/29 09:35:40;;;;;;;0.40;0.10;;;;;;;20.70;58.87;100117.93;112681;1197;94828;-72
2021/08/29 09:38:11;;;;;;;0.40;0.10;;;;;;;20.71;58.11;100115.11;112501;1205;94819;-72
2021/08/29 09:40:38;;;;;;;0.40;0.00;;;;;;;20.61;58.18;100114.94;112292;1205;138082;-72
2021/08/29 09:43:06;;;;;;;0.40;0.10;;;;;;;20.54;58.33;100115.74;112487;1199;95228;-72
2021/08/29 09:45:36;;;;;;;0.40;0.00;;;;;;;20.48;58.44;100113.89;112357;1199;139064;-73
2021/08/29 09:48:06;;;;;;;0.40;0.10;;;;;;;20.47;59.11;100111.59;112493;1198;108700;-73
2021/08/29 09:50:35;;;;;;;0.40;0.00;;;;;;;20.48;59.07;100114.38;112425;1203;109499;-73
2021/08/29 09:53:18;;;;;;;0.40;0.10;;;;;;;20.43;59.70;100115.86;112415;1198;138553;-74
2021/08/29 09:55:47;;;;;;;0.40;0.00;;;;;;;20.40;59.99;100113.55;112475;1205;94815;-73
2021/08/29 09:58:25;;;;;;;0.40;0.00;;;;;;;20.46;59.98;100106.66;112180;1199;138776;-73
2021/08/29 10:01:08;;;;;;;0.40;0.10;;;;;;;20.53;61.44;100110.23;112475;1204;108413;-72
2021/08/29 10:03:47;;;;;;;0.40;0.00;;;;;;;20.47;60.74;100112.70;112458;1199;137500;-73
2021/08/29 10:06:21;;;;;;;0.40;0.00;;;;;;;20.29;60.61;100113.77;112519;1205;94888;-73
2021/08/29 10:08:50;;;;;;;0.40;0.00;;;;;;;20.25;61.47;100114.58;112369;1199;108461;-73
2021/08/29 10:11:21;;;;;;;0.40;0.00;;;;;;;20.30;62.07;100113.55;112344;1198;137793;-73
2021/08/29 10:13:49;;;;;;;0.40;0.00;;;;;;;20.37;61.32;100114.52;112341;1199;94898;-73
2021/08/29 10:16:17;;;;;;;0.40;0.00;;;;;;;20.41;59.97;100113.30;112308;1197;139833;-73
2021/08/29 10:18:50;;;;;;;0.40;0.00;;;;;;;20.42;60.21;100111.63;112419;1205;108558;-73
2021/08/29 10:21:20;;;;;;;0.40;0.00;;;;;;;20.33;59.89;100107.91;112361;1198;139310;-73
2021/08/29 10:23:51;;;;;;;0.40;0.00;;;;;;;20.30;60.27;100107.02;112554;1198;94938;-73
2021/08/29 10:26:21;;;;;;;0.40;0.00;;;;;;;20.26;60.69;100103.04;112572;1205;94872;-73
2021/08/29 10:29:14;;;;;;;0.40;0.00;;;;;;;20.18;60.54;100102.50;112369;1205;137818;-73
2021/08/29 10:31:53;;;;;;;0.40;0.10;;;;;;;20.08;61.46;100105.41;112459;1205;109654;-72
2021/08/29 10:34:20;;;;;;;0.40;0.00;;;;;;;20.13;61.80;100101.08;112316;1207;139478;-74
2021/08/29 10:36:50;;;;;;;0.40;0.00;;;;;;;20.17;61.70;100102.91;112483;1200;94854;-74
2021/08/29 10:39:17;;;;;;;0.40;0.10;;;;;;;20.17;61.05;100100.42;112263;1198;137637;-74
2021/08/29 10:41:44;;;;;;;0.40;0.10;;;;;;;20.21;61.48;100104.95;112491;1203;95837;-74
2021/08/29 10:44:14;;;;;;;0.40;0.10;;;;;;;20.24;60.50;100109.98;112448;1197;94853;-74
2021/08/29 10:46:45;;;;;;;0.40;0.00;;;;;;;20.22;60.75;100114.11;112447;1205;137120;-74
2021/08/29 10:49:13;;;;;;;0.40;0.00;;;;;;;20.25;59.43;100112.30;112413;1198;108658;-72
2021/08/29 10:51:41;;;;;;;0.40;0.10;;;;;;;20.24;59.59;100105.89;112254;1198;138212;-74
2021/08/29 10:54:13;;;;;;;0.40;0.00;;;;;;;20.31;60.27;100107.30;112408;1198;94918;-73
2021/08/29 10:56:41;;;;;;;0.40;0.00;;;;;;;20.45;59.47;100108.48;112396;1199;94885;-73
2021/08/29 10:59:08;;;;;;;0.40;0.10;;;;;;;20.59;58.73;100105.90;112512;1203;136540;-73
2021/08/29 11:01:44;;;;;;;0.40;0.10;;;;;;;20.66;58.85;100106.58;112471;1199;95440;-72
2021/08/29 11:04:17;;;;;;;0.40;0.10;;;;;;;20.68;57.82;100106.45;112329;1203;138896;-72
2021/08/29 11:06:47;;;;;;;0.40;0.10;;;;;;;20.67;57.91;100104.91;112423;1198;94805;-73
2021/08/29 11:09:35;;;;;;;0.40;0.10;;;;;;;20.71;58.36;100101.96;112233;1205;137486;-73
2021/08/29 11:12:15;;;;;;;0.40;0.00;;;;;;;20.78;57.67;100098.55;112375;1199;109383;-73
2021/08/29 11:14:47;;;;;;;0.40;0.00;;;;;;;20.81;57.64;100101.06;112492;1199;95597;-73
2021/08/29 11:17:15;;;;;;;0.40;0.10;;;;;;;20.80;58.18;100100.05;112267;1198;139500;-72